CheckWX is a tool to help pilots better visualize weather data.  It is not intended as a substitute for an official pre-flight weather briefing.

13:15:24 UTC

KLIT TAF
Bill and Hillary Clinton National / Adams Field Airport
Little Rock, Arkansas, USA
KLIT 191133Z 1912/2012 25006KT P6SM SCT250 FM200100 17004KT P6SM SKC

Nov-19@
12:00 UTC

Nov-19 @ 12:00 UTC

Nov-20@
01:00 UTC

Nov-20 @ 01:00 UTC

KLIT 191133Z 1912/2012 25006KT P6SM SCT250
Wind
  • 250° at 6 KTS
Cloud Levels
  • Scattered at 25,000' AGL

Nov-20@
01:00 UTC

Nov-20 @ 01:00 UTC

Nov-20@
12:00 UTC

Nov-20 @ 12:00 UTC

FM200100 17004KT P6SM SKC

From

From Standard forecast or significant change

Wind
  • 170° at 4 KTS
Cloud Levels
  • Clear skies